Time;durP1;ratioP1;P1;durP2;ratioP2;P2;SDS_P1;SDS_P2;PMS_P1;PMS_P2;Temp;Humidity;BMP_temperature;BMP_pressure;BME280_temperature;BME280_humidity;BME280_pressure;Samples;Min_cycle;Max_cycle;Signal;HPM_P1;HPM_P2
2022/11/06 00:01:46;;;;;;;10.00;6.37;;;7.90;99.90;;;;;;7339247;32;20641;-59
2022/11/06 00:10:09;;;;;;;13.57;6.85;;;7.90;99.90;;;;;;7349408;32;20141;-60
2022/11/06 00:14:10;;;;;;;12.23;7.05;;;7.80;99.90;;;;;;7351042;32;20099;-60
2022/11/06 00:18:12;;;;;;;14.55;6.93;;;7.80;99.90;;;;;;7346350;32;20107;-59
2022/11/06 00:22:15;;;;;;;13.13;7.37;;;7.80;99.90;;;;;;7352942;32;20284;-59
2022/11/06 00:26:20;;;;;;;13.38;7.25;;;7.70;99.90;;;;;;7346482;32;20142;-59
2022/11/06 00:30:21;;;;;;;14.98;6.78;;;7.70;99.90;;;;;;7345613;32;20253;-58
2022/11/06 00:34:23;;;;;;;13.43;6.78;;;7.70;99.90;;;;;;7353535;32;20762;-59
2022/11/06 00:38:25;;;;;;;12.93;6.82;;;7.70;99.90;;;;;;7346271;32;20206;-59
2022/11/06 00:42:26;;;;;;;8.52;5.97;;;7.70;99.90;;;;;;7348128;32;20130;-59
2022/11/06 00:46:28;;;;;;;12.93;6.32;;;7.70;99.90;;;;;;7340208;32;20138;-59
2022/11/06 00:50:31;;;;;;;14.60;6.50;;;7.70;99.90;;;;;;7344116;32;20220;-59
2022/11/06 00:54:33;;;;;;;19.33;6.40;;;7.70;99.90;;;;;;7347672;32;20110;-58
2022/11/06 00:58:35;;;;;;;10.32;6.00;;;7.60;99.90;;;;;;7345867;32;20213;-59
2022/11/06 01:02:37;;;;;;;9.65;5.75;;;7.70;99.90;;;;;;7343181;32;20142;-58
2022/11/06 01:06:42;;;;;;;10.00;4.72;;;7.70;99.90;;;;;;7351517;32;20193;-59
2022/11/06 01:10:44;;;;;;;9.80;5.45;;;7.70;99.90;;;;;;7350147;32;20516;-59
2022/11/06 01:14:45;;;;;;;8.43;5.00;;;7.70;99.90;;;;;;7346536;32;21174;-59
2022/11/06 01:18:47;;;;;;;12.70;5.25;;;7.60;99.90;;;;;;7346423;32;20229;-60
2022/11/06 01:22:49;;;;;;;11.32;4.78;;;7.60;99.90;;;;;;7342259;32;20115;-59
2022/11/06 01:26:50;;;;;;;8.98;4.28;;;7.70;99.90;;;;;;7341178;32;20553;-59
2022/11/06 01:31:15;;;;;;;9.43;4.15;;;7.70;99.90;;;;;;7346826;32;20111;-59
2022/11/06 01:35:16;;;;;;;8.05;3.50;;;7.60;99.90;;;;;;7344833;32;20183;-59
2022/11/06 01:39:19;;;;;;;7.82;3.67;;;7.60;99.90;;;;;;7344630;32;20103;-59
2022/11/06 01:43:23;;;;;;;9.10;4.45;;;7.60;99.90;;;;;;7343411;32;20605;-59
2022/11/06 01:47:27;;;;;;;9.63;3.37;;;7.70;99.90;;;;;;7351356;32;20107;-59
2022/11/06 01:51:39;;;;;;;7.60;3.33;;;7.80;99.90;;;;;;7348262;32;20531;-59
2022/11/06 01:55:46;;;;;;;6.28;3.15;;;7.90;99.90;;;;;;7347014;32;20135;-59
2022/11/06 01:59:50;;;;;;;11.00;3.00;;;7.90;99.90;;;;;;7346708;32;20130;-60
2022/11/06 02:04:21;;;;;;;7.60;3.05;;;7.90;99.90;;;;;;7354039;32;20130;-60
2022/11/06 02:08:24;;;;;;;9.90;2.80;;;7.80;99.90;;;;;;7352909;32;20142;-59
2022/11/06 02:12:37;;;;;;;10.05;3.10;;;7.70;99.90;;;;;;7350035;32;20239;-59
2022/11/06 02:17:10;;;;;;;7.30;2.87;;;7.70;99.90;;;;;;7351611;32;20111;-59
2022/11/06 02:21:29;;;;;;;9.45;3.25;;;7.80;99.90;;;;;;7349007;32;20133;-59
2022/11/06 02:26:01;;;;;;;6.93;2.47;;;7.70;99.90;;;;;;7348259;32;20129;-59
2022/11/06 02:30:08;;;;;;;7.53;2.85;;;7.70;99.90;;;;;;7352860;32;20107;-59
2022/11/06 02:34:15;;;;;;;7.55;2.80;;;7.80;99.90;;;;;;7350118;32;20126;-59
2022/11/06 02:38:26;;;;;;;9.13;2.40;;;7.90;99.90;;;;;;7345903;32;20201;-59
2022/11/06 02:42:30;;;;;;;8.50;2.53;;;7.90;99.90;;;;;;7349675;32;20149;-59
2022/11/06 02:46:43;;;;;;;12.27;2.65;;;8.00;99.90;;;;;;7349598;32;20223;-59
2022/11/06 02:50:48;;;;;;;8.00;2.60;;;8.00;99.90;;;;;;7353398;32;20194;-58
2022/11/06 02:55:07;;;;;;;8.70;2.20;;;8.00;99.90;;;;;;7348439;32;20104;-59
2022/11/06 02:59:42;;;;;;;6.00;2.20;;;8.10;99.90;;;;;;7354247;32;20099;-58
2022/11/06 03:03:50;;;;;;;8.82;2.47;;;8.00;99.90;;;;;;7335658;32;20111;-59
2022/11/06 03:08:08;;;;;;;8.65;2.58;;;7.90;99.90;;;;;;7346871;32;20103;-59
2022/11/06 03:12:31;;;;;;;7.90;2.42;;;7.90;99.90;;;;;;7351568;32;20160;-59
2022/11/06 03:16:35;;;;;;;6.50;2.35;;;7.90;99.90;;;;;;7351299;32;20120;-58
2022/11/06 03:21:01;;;;;;;7.72;2.50;;;7.90;99.90;;;;;;7348778;32;20114;-58
2022/11/06 03:25:22;;;;;;;8.70;2.22;;;7.90;99.90;;;;;;7350505;32;20744;-59
2022/11/06 03:29:44;;;;;;;8.57;2.60;;;7.70;99.90;;;;;;7348165;32;20817;-59
2022/11/06 03:33:53;;;;;;;7.35;2.40;;;7.70;99.90;;;;;;7353029;32;20582;-59
2022/11/06 03:38:24;;;;;;;7.43;2.22;;;7.70;99.90;;;;;;7348250;32;20447;-59
2022/11/06 03:42:29;;;;;;;5.60;2.53;;;7.80;99.90;;;;;;7333597;32;20213;-58
2022/11/06 03:46:36;;;;;;;5.55;2.20;;;7.80;99.90;;;;;;7352342;32;20471;-59
2022/11/06 03:50:45;;;;;;;8.07;2.25;;;7.70;99.90;;;;;;7344922;32;20823;-59
2022/11/06 03:55:15;;;;;;;7.00;2.15;;;7.80;99.90;;;;;;7348761;32;20116;-60
2022/11/06 03:59:22;;;;;;;6.65;2.65;;;7.80;99.90;;;;;;7318602;32;20210;-58
2022/11/06 04:03:50;;;;;;;5.97;2.12;;;7.70;99.90;;;;;;7340834;32;20127;-59
2022/11/06 04:16:54;;;;;;;9.85;2.53;;;7.70;99.90;;;;;;7346037;32;20126;-59
2022/11/06 04:21:25;;;;;;;7.10;2.30;;;7.60;99.90;;;;;;7349767;32;20194;-58
2022/11/06 04:30:21;;;;;;;11.20;2.35;;;7.60;99.90;;;;;;7342681;32;20182;-59
2022/11/06 04:34:45;;;;;;;7.25;1.95;;;7.60;99.90;;;;;;7344120;32;20141;-59
2022/11/06 04:39:18;;;;;;;9.00;2.30;;;7.60;99.90;;;;;;7350243;32;20186;-59
2022/11/06 04:43:44;;;;;;;6.72;1.87;;;7.60;99.90;;;;;;7353050;32;20137;-59
2022/11/06 04:47:46;;;;;;;5.18;1.90;;;7.60;99.90;;;;;;7351081;32;20695;-59
2022/11/06 04:51:48;;;;;;;7.20;1.98;;;7.50;99.90;;;;;;7349188;32;20400;-59
2022/11/06 04:55:58;;;;;;;4.82;1.67;;;7.60;99.90;;;;;;7345341;32;20125;-59
2022/11/06 05:00:00;;;;;;;6.50;1.85;;;7.50;99.90;;;;;;7349312;32;20125;-59
2022/11/06 05:04:02;;;;;;;6.10;1.98;;;7.50;99.90;;;;;;7341069;32;20562;-59
2022/11/06 05:08:03;;;;;;;5.90;1.65;;;7.50;99.90;;;;;;7347838;32;20103;-58
2022/11/06 05:12:05;;;;;;;7.10;1.95;;;7.50;99.90;;;;;;7344636;32;20205;-58
2022/11/06 05:16:07;;;;;;;8.38;2.15;;;7.60;99.90;;;;;;7346360;32;20099;-59
2022/11/06 05:20:09;;;;;;;8.27;1.50;;;7.60;99.90;;;;;;7345008;32;20186;-59
2022/11/06 05:24:11;;;;;;;6.93;1.87;;;7.60;99.90;;;;;;7347954;32;20111;-59
2022/11/06 05:28:12;;;;;;;3.97;1.55;;;7.60;99.90;;;;;;7342848;32;20247;-58
2022/11/06 05:32:15;;;;;;;5.87;1.73;;;7.60;99.90;;;;;;7348314;32;20103;-59
2022/11/06 05:36:16;;;;;;;4.93;1.42;;;7.70;99.90;;;;;;7360012;32;20189;-59
2022/11/06 05:40:18;;;;;;;4.93;1.62;;;7.70;99.90;;;;;;7354995;32;20091;-59
2022/11/06 05:44:20;;;;;;;8.18;1.62;;;7.80;99.90;;;;;;7349543;32;20122;-59
2022/11/06 05:48:21;;;;;;;6.90;1.92;;;7.70;99.90;;;;;;7350721;32;20429;-59
2022/11/06 05:52:23;;;;;;;5.55;1.55;;;7.80;99.90;;;;;;7354425;32;20508;-60
2022/11/06 05:56:24;;;;;;;6.22;1.60;;;7.80;99.90;;;;;;7353304;32;20502;-59
2022/11/06 06:00:26;;;;;;;5.87;1.95;;;7.80;99.90;;;;;;7354504;32;21626;-59
2022/11/06 06:04:28;;;;;;;8.40;1.50;;;7.80;99.90;;;;;;7340157;32;20258;-59
2022/11/06 06:08:29;;;;;;;5.35;1.40;;;7.80;99.90;;;;;;7348137;32;20091;-59
2022/11/06 06:12:31;;;;;;;2.78;1.65;;;7.80;99.90;;;;;;7340009;32;20133;-59
2022/11/06 06:16:33;;;;;;;5.57;1.25;;;7.90;99.90;;;;;;7345436;32;20190;-59
2022/11/06 06:20:35;;;;;;;7.22;1.30;;;7.90;99.90;;;;;;7343978;32;20753;-59
2022/11/06 06:24:37;;;;;;;6.43;1.30;;;7.90;99.90;;;;;;7345427;32;20189;-59
2022/11/06 06:28:39;;;;;;;6.28;1.30;;;7.90;99.90;;;;;;7347083;32;21650;-59
2022/11/06 06:32:40;;;;;;;6.05;1.73;;;7.80;99.90;;;;;;7334972;32;20122;-58
2022/11/06 06:36:42;;;;;;;3.72;1.40;;;7.80;99.90;;;;;;7343448;32;20117;-58
2022/11/06 06:40:44;;;;;;;3.62;1.20;;;7.80;99.90;;;;;;7339521;32;20103;-58
2022/11/06 06:44:45;;;;;;;6.53;1.45;;;7.80;99.90;;;;;;7354818;32;20099;-59
2022/11/06 06:48:47;;;;;;;6.40;1.27;;;7.80;99.90;;;;;;7353162;32;20178;-59
2022/11/06 06:52:49;;;;;;;6.12;1.45;;;7.90;99.90;;;;;;7356522;32;20110;-59
2022/11/06 06:56:50;;;;;;;7.32;1.60;;;7.90;99.90;;;;;;7348978;32;20209;-59
2022/11/06 07:00:52;;;;;;;6.45;1.67;;;8.00;99.90;;;;;;7335269;32;20247;-59
2022/11/06 07:04:53;;;;;;;4.47;1.25;;;8.00;99.90;;;;;;7352929;32;20107;-59
2022/11/06 07:08:55;;;;;;;8.30;1.50;;;8.00;99.90;;;;;;7343755;32;20175;-59
2022/11/06 07:13:01;;;;;;;5.87;1.60;;;7.90;99.90;;;;;;7346893;32;20213;-58
2022/11/06 07:17:03;;;;;;;7.43;1.37;;;8.10;99.90;;;;;;7350680;32;20174;-60
2022/11/06 07:21:07;;;;;;;4.65;1.40;;;8.00;99.90;;;;;;7351344;32;20138;-59
2022/11/06 07:25:08;;;;;;;6.03;1.48;;;8.20;99.90;;;;;;7351019;32;20550;-60
2022/11/06 07:29:10;;;;;;;5.85;1.58;;;8.20;99.90;;;;;;7333859;32;20858;-59
2022/11/06 07:33:12;;;;;;;7.03;1.50;;;8.20;99.90;;;;;;7333951;32;20205;-61
2022/11/06 07:37:13;;;;;;;5.70;1.35;;;8.30;99.90;;;;;;7345188;32;20131;-60
2022/11/06 07:41:15;;;;;;;4.57;1.48;;;8.40;99.90;;;;;;7339182;32;20160;-62
2022/11/06 07:45:17;;;;;;;4.62;1.65;;;8.40;99.90;;;;;;7345108;32;20276;-61
2022/11/06 07:49:18;;;;;;;6.90;1.85;;;8.50;99.90;;;;;;7350445;32;20099;-62
2022/11/06 07:53:20;;;;;;;6.40;1.75;;;8.50;99.90;;;;;;7347344;32;20145;-62
2022/11/06 07:57:22;;;;;;;6.22;1.50;;;8.60;99.90;;;;;;7340672;32;20727;-62
2022/11/06 08:01:24;;;;;;;8.02;1.45;;;8.80;99.90;;;;;;7343703;32;20226;-62
2022/11/06 08:05:26;;;;;;;6.53;1.33;;;8.90;99.90;;;;;;7342692;32;20129;-62
2022/11/06 08:09:27;;;;;;;7.15;1.48;;;9.00;99.90;;;;;;7338075;32;20234;-63
2022/11/06 08:13:29;;;;;;;5.30;1.40;;;9.10;99.90;;;;;;7338707;32;20190;-62
2022/11/06 08:17:31;;;;;;;7.32;1.50;;;9.20;99.90;;;;;;7346306;32;20107;-61
2022/11/06 08:21:33;;;;;;;6.45;1.60;;;9.20;99.90;;;;;;7330407;32;20240;-61
2022/11/06 08:25:34;;;;;;;6.07;1.50;;;9.30;99.90;;;;;;7341323;32;20096;-60
2022/11/06 08:29:36;;;;;;;6.80;1.70;;;9.20;99.90;;;;;;7338254;32;20139;-61
2022/11/06 08:33:42;;;;;;;7.37;1.58;;;9.20;99.90;;;;;;7352172;32;20867;-62
2022/11/06 08:37:44;;;;;;;4.05;1.17;;;9.30;99.90;;;;;;7340216;32;20179;-61
2022/11/06 08:41:46;;;;;;;5.30;1.40;;;9.40;99.90;;;;;;7336149;32;20471;-62
2022/11/06 08:45:47;;;;;;;3.33;1.40;;;9.60;99.90;;;;;;7345939;32;20241;-62
2022/11/06 08:49:49;;;;;;;3.03;1.40;;;9.80;99.90;;;;;;7346311;32;20199;-61
2022/11/06 08:53:50;;;;;;;6.72;1.70;;;10.00;99.90;;;;;;7340023;32;20182;-62
2022/11/06 08:57:55;;;;;;;5.95;1.65;;;10.10;99.90;;;;;;7350725;32;20112;-61
2022/11/06 09:01:57;;;;;;;5.60;1.77;;;10.20;99.90;;;;;;7342387;32;20534;-61
2022/11/06 09:05:59;;;;;;;5.47;1.30;;;10.30;99.90;;;;;;7341987;32;20117;-61
2022/11/06 09:10:01;;;;;;;5.97;1.30;;;10.30;99.90;;;;;;7342686;32;20737;-61
2022/11/06 09:14:03;;;;;;;5.93;1.20;;;10.40;99.90;;;;;;7352986;32;20107;-62
2022/11/06 09:18:04;;;;;;;4.15;1.23;;;10.40;99.90;;;;;;7354355;32;20148;-62
2022/11/06 09:22:07;;;;;;;6.43;1.20;;;10.70;99.90;;;;;;7351681;32;20095;-61
2022/11/06 09:26:08;;;;;;;10.95;1.73;;;10.80;99.90;;;;;;7352174;32;20099;-61
2022/11/06 09:30:13;;;;;;;6.05;1.45;;;10.90;99.90;;;;;;7336722;32;20095;-61
2022/11/06 09:34:14;;;;;;;5.70;1.48;;;11.00;99.90;;;;;;7349502;32;20144;-59
2022/11/06 09:38:16;;;;;;;5.00;1.40;;;11.20;99.90;;;;;;7352150;32;20106;-59
2022/11/06 09:42:49;;;;;;;5.35;1.58;;;11.10;99.90;;;;;;7340593;32;20755;-60
2022/11/06 09:46:52;;;;;;;6.60;2.00;;;11.20;99.90;;;;;;7352068;32;20103;-60
2022/11/06 09:51:06;;;;;;;5.47;1.58;;;11.40;99.90;;;;;;7349256;32;20130;-60
2022/11/06 09:55:37;;;;;;;7.00;1.45;;;11.40;99.90;;;;;;7352836;32;20610;-60
2022/11/06 09:59:40;;;;;;;3.47;0.90;;;11.50;99.90;;;;;;7342470;32;20477;-60
2022/11/06 10:03:47;;;;;;;7.78;1.83;;;11.50;99.90;;;;;;7348761;32;20229;-60
2022/11/06 10:07:55;;;;;;;6.05;1.40;;;11.40;99.90;;;;;;7351753;32;20104;-60
2022/11/06 10:12:08;;;;;;;6.45;1.45;;;11.50;99.90;;;;;;7354940;32;20189;-60
2022/11/06 10:16:28;;;;;;;10.40;1.58;;;11.50;99.90;;;;;;7351709;32;20510;-62
2022/11/06 10:20:36;;;;;;;5.95;1.33;;;11.50;99.90;;;;;;7350318;32;20130;-61
2022/11/06 10:24:45;;;;;;;5.15;1.33;;;11.60;99.90;;;;;;7350737;32;20213;-60
2022/11/06 10:29:16;;;;;;;7.62;1.37;;;11.70;99.90;;;;;;7341868;32;20103;-61
2022/11/06 10:33:34;;;;;;;3.92;1.20;;;11.70;99.90;;;;;;7345922;32;20353;-61
2022/11/06 10:37:45;;;;;;;4.55;1.30;;;11.70;99.90;;;;;;7349884;32;20513;-62
2022/11/06 10:41:55;;;;;;;6.07;1.40;;;11.70;99.90;;;;;;7348575;32;20234;-61
2022/11/06 10:46:00;;;;;;;7.05;1.60;;;11.70;99.90;;;;;;7351105;32;20181;-63
2022/11/06 10:50:04;;;;;;;7.30;1.65;;;11.70;99.90;;;;;;7348360;32;20236;-61
2022/11/06 10:54:06;;;;;;;7.20;1.60;;;11.60;99.90;;;;;;7343327;32;20240;-62
2022/11/06 10:58:27;;;;;;;6.60;1.37;;;11.70;99.90;;;;;;7340203;32;20258;-61
2022/11/06 11:02:32;;;;;;;6.57;1.85;;;11.70;99.90;;;;;;7345220;32;20099;-62
2022/11/06 11:06:34;;;;;;;4.57;1.35;;;11.90;99.90;;;;;;7350799;32;20198;-64
2022/11/06 11:10:36;;;;;;;5.20;1.62;;;11.90;99.90;;;;;;7345023;32;20142;-63
2022/11/06 11:14:37;;;;;;;5.70;1.55;;;11.90;99.90;;;;;;7341213;32;20550;-61
2022/11/06 11:18:39;;;;;;;4.35;1.55;;;11.90;99.90;;;;;;7334883;32;20103;-60
2022/11/06 11:22:41;;;;;;;4.53;1.40;;;11.90;99.90;;;;;;7345851;32;20118;-61
2022/11/06 11:26:44;;;;;;;7.43;1.73;;;11.80;99.90;;;;;;7344769;32;20226;-61
2022/11/06 11:30:54;;;;;;;4.90;1.62;;;11.80;99.90;;;;;;7353944;32;20119;-60
2022/11/06 11:34:57;;;;;;;9.35;2.12;;;11.80;99.90;;;;;;7345835;32;20860;-60
2022/11/06 11:38:59;;;;;;;3.67;1.40;;;11.80;99.90;;;;;;7352771;32;20561;-61
2022/11/06 11:43:23;;;;;;;6.22;2.33;;;11.70;99.90;;;;;;7348002;32;20099;-60
2022/11/06 11:47:24;;;;;;;5.62;2.00;;;11.70;99.90;;;;;;7342914;32;20129;-61
2022/11/06 11:51:45;;;;;;;8.40;2.28;;;11.60;99.90;;;;;;7352079;32;20178;-61
2022/11/06 11:55:49;;;;;;;6.53;1.45;;;11.70;99.90;;;;;;7354580;32;20103;-60
2022/11/06 11:59:56;;;;;;;7.95;1.77;;;11.80;99.90;;;;;;7347766;32;20114;-61
2022/11/06 12:03:59;;;;;;;6.62;1.48;;;12.00;99.90;;;;;;7340335;32;20160;-61
2022/11/06 12:08:01;;;;;;;5.47;1.62;;;12.20;99.90;;;;;;7350397;32;20276;-61
2022/11/06 12:12:03;;;;;;;6.40;1.52;;;12.20;99.90;;;;;;7351508;32;20255;-59
2022/11/06 12:16:13;;;;;;;7.25;2.75;;;12.20;99.90;;;;;;7350469;32;20127;-59
2022/11/06 12:20:21;;;;;;;9.25;2.00;;;12.10;99.90;;;;;;7343308;32;20205;-59
2022/11/06 12:24:50;;;;;;;7.47;1.65;;;12.20;99.90;;;;;;7350644;32;20606;-59
2022/11/06 12:28:57;;;;;;;6.82;2.42;;;12.10;99.90;;;;;;7348685;32;20511;-59
2022/11/06 12:33:13;;;;;;;6.03;2.00;;;12.00;99.90;;;;;;7345334;32;20103;-60
2022/11/06 12:37:37;;;;;;;7.97;2.00;;;11.90;99.90;;;;;;7338478;32;20574;-59
2022/11/06 12:41:44;;;;;;;4.07;1.73;;;11.70;99.90;;;;;;7340374;32;20623;-60
2022/11/06 12:46:06;;;;;;;6.97;2.10;;;11.70;99.90;;;;;;7344859;32;20257;-59
2022/11/06 12:50:27;;;;;;;5.37;2.03;;;11.60;99.90;;;;;;7343286;32;20198;-59
2022/11/06 12:54:47;;;;;;;7.50;1.90;;;11.60;99.90;;;;;;7342448;32;20206;-59
2022/11/06 12:59:13;;;;;;;4.28;1.50;;;11.70;99.90;;;;;;7332264;32;20837;-62
2022/11/06 13:03:33;;;;;;;7.72;2.00;;;11.60;99.90;;;;;;7347871;32;20103;-62
2022/11/06 13:08:23;;;;;;;6.03;1.75;;;11.60;99.90;;;;;;7334551;32;20146;-61
2022/11/06 13:12:40;;;;;;;7.65;1.92;;;11.70;99.90;;;;;;7299324;32;20873;-61
2022/11/06 13:16:59;;;;;;;6.85;1.83;;;12.00;99.90;;;;;;7323357;32;20141;-59
2022/11/06 13:21:09;;;;;;;4.10;1.30;;;12.10;99.90;;;;;;7345707;32;20127;-61
2022/11/06 13:25:18;;;;;;;5.22;1.60;;;12.30;99.90;;;;;;7349750;32;20180;-61
2022/11/06 13:29:23;;;;;;;4.45;1.33;;;12.40;99.90;;;;;;7344895;32;20111;-61
2022/11/06 13:33:33;;;;;;;5.40;1.62;;;12.20;99.90;;;;;;7341303;32;20108;-60
2022/11/06 13:37:38;;;;;;;3.65;1.33;;;12.00;99.90;;;;;;7344984;32;20149;-60
2022/11/06 13:41:40;;;;;;;5.55;1.48;;;12.00;99.90;;;;;;7347356;32;20103;-61
2022/11/06 13:45:48;;;;;;;4.97;1.45;;;11.90;99.90;;;;;;7349077;32;20111;-62
2022/11/06 13:50:07;;;;;;;4.12;1.50;;;11.90;99.90;;;;;;7350675;32;20142;-61
2022/11/06 13:54:40;;;;;;;4.93;1.50;;;11.80;99.90;;;;;;7337023;32;20678;-61
2022/11/06 13:59:20;;;;;;;5.93;1.52;;;11.80;99.90;;;;;;7353880;32;20209;-61
2022/11/06 14:03:59;;;;;;;5.43;1.40;;;11.80;99.90;;;;;;7349575;32;20616;-60
2022/11/06 14:08:05;;;;;;;5.78;2.10;;;11.80;99.90;;;;;;7351421;32;20099;-62
2022/11/06 14:12:16;;;;;;;5.03;1.27;;;11.80;99.90;;;;;;7356800;32;20125;-62
2022/11/06 14:16:20;;;;;;;3.80;1.45;;;11.80;99.90;;;;;;7354223;32;20141;-63
2022/11/06 14:20:34;;;;;;;2.97;1.37;;;11.80;99.90;;;;;;7348484;32;20566;-60
2022/11/06 14:24:36;;;;;;;2.35;1.20;;;11.80;99.90;;;;;;7350608;32;20464;-60
2022/11/06 14:28:43;;;;;;;3.78;1.40;;;11.80;99.90;;;;;;7351541;32;20193;-63
2022/11/06 14:32:47;;;;;;;4.90;1.10;;;11.80;99.90;;;;;;7347868;32;20159;-60
2022/11/06 14:36:49;;;;;;;3.58;1.10;;;11.80;99.90;;;;;;7341636;32;20714;-62
2022/11/06 14:40:51;;;;;;;4.10;1.15;;;11.80;99.90;;;;;;7340655;32;20122;-63
2022/11/06 14:45:10;;;;;;;3.95;1.30;;;11.60;99.90;;;;;;7341301;32;20130;-63
2022/11/06 14:49:32;;;;;;;4.70;1.30;;;11.60;99.90;;;;;;7342439;32;20122;-61
2022/11/06 14:53:51;;;;;;;4.12;1.17;;;11.70;99.90;;;;;;7350136;32;20221;-62
2022/11/06 14:57:54;;;;;;;5.07;1.35;;;11.60;99.90;;;;;;7346433;32;20112;-60
2022/11/06 15:02:04;;;;;;;2.28;0.95;;;11.50;99.90;;;;;;7350689;32;20107;-61
2022/11/06 15:06:18;;;;;;;3.78;1.05;;;11.40;99.90;;;;;;7341028;32;20111;-59
2022/11/06 15:10:42;;;;;;;3.78;1.12;;;11.40;99.90;;;;;;7343844;32;20098;-60
2022/11/06 15:14:43;;;;;;;2.97;1.15;;;11.40;99.90;;;;;;7346987;32;20120;-61
2022/11/06 15:18:45;;;;;;;2.30;0.93;;;11.30;99.90;;;;;;7346221;32;20096;-61
2022/11/06 15:22:58;;;;;;;4.72;1.35;;;11.30;99.90;;;;;;7340566;32;20099;-61
2022/11/06 15:27:15;;;;;;;2.95;1.20;;;11.30;99.90;;;;;;7340452;32;20095;-61
2022/11/06 15:31:19;;;;;;;2.63;1.10;;;11.20;99.90;;;;;;7347975;32;20125;-59
2022/11/06 15:35:26;;;;;;;5.25;1.20;;;11.00;99.90;;;;;;7349083;32;20107;-60
2022/11/06 15:39:28;;;;;;;7.20;1.10;;;10.90;99.90;;;;;;7349640;32;20248;-61
2022/11/06 15:43:32;;;;;;;6.95;1.00;;;10.70;99.90;;;;;;7350287;32;20824;-60
2022/11/06 15:47:34;;;;;;;2.80;1.33;;;10.50;99.90;;;;;;7345893;32;20395;-59
2022/11/06 15:51:39;;;;;;;3.55;1.10;;;10.30;99.90;;;;;;7339120;32;20100;-60
2022/11/06 15:55:59;;;;;;;4.47;1.10;;;10.10;99.90;;;;;;7340976;32;20194;-63
2022/11/06 16:00:09;;;;;;;3.30;1.30;;;10.10;99.90;;;;;;7342385;32;20195;-62
2022/11/06 16:04:16;;;;;;;3.30;1.15;;;9.70;99.90;;;;;;7340195;32;20191;-61
2022/11/06 16:08:22;;;;;;;3.05;1.20;;;9.50;99.90;;;;;;7349440;32;20096;-61
2022/11/06 16:12:25;;;;;;;4.72;1.58;;;9.40;99.90;;;;;;7350940;32;20106;-60
2022/11/06 16:16:32;;;;;;;3.22;1.30;;;9.30;99.90;;;;;;7348563;32;20107;-59
2022/11/06 16:20:34;;;;;;;2.83;1.58;;;9.10;99.90;;;;;;7331771;32;20217;-60
2022/11/06 16:25:00;;;;;;;5.37;1.67;;;9.00;99.90;;;;;;7341713;32;20098;-59
2022/11/06 16:29:15;;;;;;;4.28;2.05;;;8.90;99.90;;;;;;7349822;32;20141;-59
2022/11/06 16:33:22;;;;;;;4.80;2.22;;;8.80;99.90;;;;;;7341690;32;20099;-60
2022/11/06 16:37:26;;;;;;;5.10;2.20;;;8.80;99.90;;;;;;7350098;32;20121;-59
2022/11/06 16:41:56;;;;;;;6.70;2.12;;;8.70;99.90;;;;;;7347795;32;20095;-59
2022/11/06 16:46:09;;;;;;;4.60;1.95;;;8.80;99.90;;;;;;7350283;32;20750;-60
2022/11/06 16:50:42;;;;;;;4.85;1.85;;;8.80;99.90;;;;;;7338868;32;20182;-60
2022/11/06 16:54:52;;;;;;;4.30;1.45;;;8.70;99.90;;;;;;7346415;32;20767;-60
2022/11/06 16:58:59;;;;;;;3.55;1.90;;;8.80;99.90;;;;;;7346422;32;20095;-60
2022/11/06 17:03:07;;;;;;;6.43;1.87;;;8.80;99.90;;;;;;7338816;32;20103;-60
2022/11/06 17:07:18;;;;;;;3.25;1.92;;;8.90;99.90;;;;;;7343663;32;20185;-59
2022/11/06 17:11:20;;;;;;;4.47;1.92;;;8.90;99.90;;;;;;7345637;32;20300;-59
2022/11/06 17:15:22;;;;;;;3.15;1.90;;;8.90;99.90;;;;;;7352685;32;20500;-59
2022/11/06 17:19:25;;;;;;;8.65;2.05;;;9.00;99.90;;;;;;7350621;32;20133;-60
2022/11/06 17:23:29;;;;;;;6.03;2.20;;;9.00;99.90;;;;;;7343550;32;20126;-59
2022/11/06 17:27:30;;;;;;;3.60;1.92;;;9.00;99.90;;;;;;7342800;32;20114;-60
2022/11/06 17:31:32;;;;;;;4.20;2.47;;;9.00;99.90;;;;;;7346428;32;20643;-60
2022/11/06 17:35:34;;;;;;;3.50;1.90;;;9.10;99.90;;;;;;7330111;32;20221;-60
2022/11/06 17:39:35;;;;;;;3.50;2.35;;;9.10;99.90;;;;;;7334664;32;20213;-61
2022/11/06 17:43:38;;;;;;;3.95;2.40;;;9.00;99.90;;;;;;7344519;32;20126;-61
2022/11/06 17:47:40;;;;;;;4.72;2.10;;;9.00;99.90;;;;;;7348753;32;20211;-64
2022/11/06 17:51:58;;;;;;;6.37;2.60;;;9.00;99.90;;;;;;7353113;32;20208;-62
2022/11/06 17:56:04;;;;;;;4.65;2.47;;;8.90;99.90;;;;;;7354932;32;20156;-62
2022/11/06 18:00:08;;;;;;;4.57;2.55;;;8.80;99.90;;;;;;7351698;32;20578;-59
2022/11/06 18:04:10;;;;;;;5.70;2.78;;;8.80;99.90;;;;;;7351714;32;20202;-61
2022/11/06 18:08:12;;;;;;;3.50;2.03;;;8.90;99.90;;;;;;7349988;32;20100;-60
2022/11/06 18:12:16;;;;;;;4.25;2.22;;;8.90;99.90;;;;;;7351767;32;20107;-61
2022/11/06 18:16:24;;;;;;;5.47;2.75;;;8.90;99.90;;;;;;7352349;32;20523;-60
2022/11/06 18:20:25;;;;;;;5.55;2.37;;;8.90;99.90;;;;;;7351376;32;20626;-59
2022/11/06 18:24:27;;;;;;;4.05;2.17;;;8.90;99.90;;;;;;7352505;32;20095;-60
2022/11/06 18:28:29;;;;;;;3.62;2.53;;;8.90;99.90;;;;;;7348249;32;20103;-59
2022/11/06 18:32:30;;;;;;;8.52;2.55;;;8.90;99.90;;;;;;7345644;32;20190;-59
2022/11/06 18:36:35;;;;;;;5.05;2.60;;;9.00;99.90;;;;;;7350829;32;20575;-60
2022/11/06 18:40:38;;;;;;;5.20;2.72;;;8.90;99.90;;;;;;7340354;32;20130;-60
2022/11/06 18:44:40;;;;;;;4.97;2.15;;;9.00;99.90;;;;;;7345863;32;20251;-61
2022/11/06 18:48:43;;;;;;;4.15;2.33;;;9.10;99.90;;;;;;7342067;32;20099;-59
2022/11/06 18:52:44;;;;;;;3.85;2.45;;;9.10;99.90;;;;;;7345324;32;20245;-60
2022/11/06 18:56:59;;;;;;;6.82;2.72;;;9.10;99.90;;;;;;7347798;32;20112;-60
2022/11/06 19:01:05;;;;;;;4.72;2.50;;;9.10;99.90;;;;;;7347326;32;20287;-60
2022/11/06 19:05:07;;;;;;;5.12;2.42;;;9.20;99.90;;;;;;7348541;32;20122;-60
2022/11/06 19:09:09;;;;;;;5.57;2.83;;;9.30;99.90;;;;;;7347169;32;20534;-59
2022/11/06 19:13:11;;;;;;;6.75;2.50;;;9.30;99.90;;;;;;7352024;32;20122;-59
2022/11/06 19:17:13;;;;;;;5.50;2.70;;;9.30;99.90;;;;;;7345477;32;20202;-60
2022/11/06 19:21:15;;;;;;;3.75;2.10;;;9.30;99.90;;;;;;7328021;32;21692;-59
2022/11/06 19:25:17;;;;;;;5.05;2.28;;;9.40;99.90;;;;;;7344509;32;20129;-60
2022/11/06 19:29:20;;;;;;;4.43;2.60;;;9.40;99.90;;;;;;7344805;32;20118;-59
2022/11/06 19:33:21;;;;;;;5.68;3.00;;;9.40;99.90;;;;;;7344533;32;20487;-59
2022/11/06 19:37:23;;;;;;;6.03;2.85;;;9.40;99.90;;;;;;7346077;32;20098;-59
2022/11/06 19:41:26;;;;;;;5.85;2.55;;;9.50;99.90;;;;;;7344127;32;20137;-57
2022/11/06 19:45:28;;;;;;;4.78;2.70;;;9.60;99.90;;;;;;7338272;32;20182;-62
2022/11/06 19:49:30;;;;;;;4.10;2.15;;;9.60;99.90;;;;;;7345085;32;20182;-61
2022/11/06 19:53:31;;;;;;;4.70;3.10;;;9.60;99.90;;;;;;7337451;32;20224;-60
2022/11/06 19:57:33;;;;;;;7.60;2.20;;;9.60;99.90;;;;;;7349864;32;20483;-60
2022/11/06 20:01:35;;;;;;;3.95;2.40;;;9.70;99.90;;;;;;7346749;32;20099;-60
2022/11/06 20:05:38;;;;;;;3.53;2.40;;;9.70;99.90;;;;;;7335989;32;20238;-61
2022/11/06 20:09:40;;;;;;;4.15;2.00;;;9.70;99.90;;;;;;7344078;32;20190;-60
2022/11/06 20:13:43;;;;;;;5.62;2.62;;;9.70;99.90;;;;;;7336685;32;20190;-61
2022/11/06 20:17:44;;;;;;;5.53;2.10;;;9.80;99.90;;;;;;7347164;32;20142;-62
2022/11/06 20:21:46;;;;;;;7.07;2.33;;;9.80;99.90;;;;;;7345950;32;20513;-62
2022/11/06 20:25:51;;;;;;;4.20;1.80;;;9.80;99.90;;;;;;7345016;32;20216;-61
2022/11/06 20:29:53;;;;;;;5.95;1.87;;;9.90;99.90;;;;;;7341489;32;20477;-61
2022/11/06 20:33:56;;;;;;;4.03;2.03;;;9.90;99.90;;;;;;7344738;32;20130;-60
2022/11/06 20:37:58;;;;;;;3.30;1.90;;;9.90;99.90;;;;;;7342288;32;20443;-60
2022/11/06 20:41:59;;;;;;;2.85;1.58;;;9.90;99.90;;;;;;7343984;32;20098;-61
2022/11/06 20:46:02;;;;;;;3.92;1.85;;;9.90;99.90;;;;;;7343528;32;20314;-61
2022/11/06 20:50:04;;;;;;;5.45;1.80;;;10.00;99.90;;;;;;7341494;32;20095;-60
2022/11/06 20:54:06;;;;;;;5.20;1.85;;;10.00;99.90;;;;;;7335596;32;20091;-60
2022/11/06 20:58:08;;;;;;;3.58;1.80;;;10.00;99.90;;;;;;7337939;32;20099;-61
2022/11/06 21:02:10;;;;;;;4.22;1.73;;;10.00;99.90;;;;;;7349527;32;20098;-62
2022/11/06 21:06:12;;;;;;;2.33;1.50;;;10.00;99.90;;;;;;7337451;32;20342;-61
2022/11/06 21:10:14;;;;;;;3.42;1.50;;;10.10;99.90;;;;;;7348829;32;20107;-60
2022/11/06 21:14:16;;;;;;;2.87;1.45;;;10.00;99.90;;;;;;7340781;32;20214;-59
2022/11/06 21:18:17;;;;;;;3.17;1.52;;;10.10;99.90;;;;;;7350118;32;20140;-60
2022/11/06 21:22:19;;;;;;;3.17;1.77;;;10.10;99.90;;;;;;7346598;32;20135;-60
2022/11/06 21:26:27;;;;;;;2.95;1.42;;;10.10;99.90;;;;;;7341780;32;20796;-60
2022/11/06 21:30:28;;;;;;;3.10;1.45;;;10.10;99.90;;;;;;7333764;32;20178;-60
2022/11/06 21:34:30;;;;;;;3.25;1.30;;;10.10;99.90;;;;;;7341578;32;20277;-59
2022/11/06 21:38:32;;;;;;;3.20;1.33;;;10.20;99.90;;;;;;7346899;32;20903;-60
2022/11/06 21:42:34;;;;;;;5.72;1.75;;;10.20;99.90;;;;;;7347633;32;20264;-60
2022/11/06 21:46:36;;;;;;;5.28;2.35;;;10.30;99.90;;;;;;7350153;32;20667;-61
2022/11/06 21:50:44;;;;;;;2.85;1.50;;;10.40;99.90;;;;;;7340069;32;20099;-60
2022/11/06 21:59:10;;;;;;;3.50;1.40;;;10.30;99.90;;;;;;7348357;32;20116;-60